Time;durP1;ratioP1;P1;durP2;ratioP2;P2;SDS_P1;SDS_P2;PMS_P1;PMS_P2;Temp;Humidity;BMP_temperature;BMP_pressure;BME280_temperature;BME280_humidity;BME280_pressure;Samples;Min_cycle;Max_cycle;Signal;HPM_P1;HPM_P2
2021/09/23 00:02:04;;;;;;;2.92;1.80;;;20.70;96.70;;;;;;5119965;27;20510;-72
2021/09/23 00:04:34;;;;;;;3.08;1.73;;;20.70;96.70;;;;;;5115118;27;20131;-72
2021/09/23 00:07:03;;;;;;;2.08;1.75;;;20.60;96.70;;;;;;5120640;27;20035;-73
2021/09/23 00:09:33;;;;;;;2.42;1.70;;;20.60;96.70;;;;;;5117800;27;20044;-72
2021/09/23 00:12:02;;;;;;;2.90;2.42;;;20.60;96.70;;;;;;5104752;27;20047;-72
2021/09/23 00:14:30;;;;;;;1.70;1.60;;;20.60;96.70;;;;;;5121591;27;20070;-72
2021/09/23 00:16:58;;;;;;;3.03;1.92;;;20.50;96.70;;;;;;5123167;27;20484;-72
2021/09/23 00:19:26;;;;;;;3.67;1.55;;;20.50;96.70;;;;;;5116222;27;20028;-72
2021/09/23 00:21:55;;;;;;;2.53;1.65;;;20.50;96.70;;;;;;5122249;27;20115;-72
2021/09/23 00:24:23;;;;;;;2.53;1.95;;;20.50;96.70;;;;;;5122029;27;20147;-73
2021/09/23 00:26:53;;;;;;;1.73;1.60;;;20.40;96.70;;;;;;5113942;27;20131;-72
2021/09/23 00:29:21;;;;;;;2.08;1.48;;;20.50;96.70;;;;;;5125176;27;20430;-72
2021/09/23 00:31:49;;;;;;;2.60;1.70;;;20.50;96.70;;;;;;5116888;27;20439;-72
2021/09/23 00:34:17;;;;;;;3.65;1.63;;;20.40;96.70;;;;;;5116558;27;20053;-72
2021/09/23 00:36:46;;;;;;;5.32;2.15;;;20.40;96.70;;;;;;5120334;27;20036;-72
2021/09/23 00:39:14;;;;;;;2.22;1.65;;;20.40;96.70;;;;;;5125025;27;20047;-72
2021/09/23 00:41:42;;;;;;;3.30;1.50;;;20.30;96.70;;;;;;5109877;27;20528;-72
2021/09/23 00:44:17;;;;;;;2.47;1.50;;;20.30;96.70;;;;;;5123110;27;20039;-72
2021/09/23 00:46:45;;;;;;;2.90;1.55;;;20.30;96.70;;;;;;5116500;27;20587;-72
2021/09/23 00:49:16;;;;;;;2.00;1.50;;;20.20;96.70;;;;;;5102567;27;20103;-72
2021/09/23 00:51:45;;;;;;;2.08;1.60;;;20.20;96.70;;;;;;5099095;27;20108;-73
2021/09/23 00:54:14;;;;;;;2.47;1.58;;;20.20;96.70;;;;;;5104917;27;20050;-72
2021/09/23 00:56:43;;;;;;;2.97;1.70;;;20.10;96.70;;;;;;5118018;27;20401;-72
2021/09/23 00:59:11;;;;;;;1.95;1.60;;;20.10;96.70;;;;;;5113415;27;20035;-72
2021/09/23 01:01:45;;;;;;;2.88;1.77;;;20.20;96.70;;;;;;5116763;27;20045;-72
2021/09/23 01:04:17;;;;;;;3.88;1.58;;;20.10;96.70;;;;;;5112540;27;20694;-72
2021/09/23 01:06:50;;;;;;;2.05;1.77;;;20.10;96.70;;;;;;5122130;27;20049;-72
2021/09/23 01:09:19;;;;;;;2.22;1.80;;;20.10;96.70;;;;;;5121407;27;20039;-73
2021/09/23 01:11:47;;;;;;;2.88;1.63;;;20.10;96.70;;;;;;5117398;27;20284;-73
2021/09/23 01:14:17;;;;;;;2.58;1.63;;;20.00;96.70;;;;;;5117759;27;20477;-73
2021/09/23 01:16:51;;;;;;;2.47;1.65;;;19.90;96.70;;;;;;5123352;27;20084;-74
2021/09/23 01:19:41;;;;;;;2.15;1.42;;;19.90;96.70;;;;;;5123090;27;20072;-73
2021/09/23 01:22:12;;;;;;;1.88;1.65;;;19.80;96.70;;;;;;5124119;27;20096;-73
2021/09/23 01:24:59;;;;;;;2.70;1.65;;;19.80;96.70;;;;;;5110249;27;20660;-73
2021/09/23 01:27:27;;;;;;;3.15;1.65;;;19.80;96.70;;;;;;5118637;27;20055;-73
2021/09/23 01:29:56;;;;;;;2.55;1.50;;;19.70;96.70;;;;;;5119055;27;20040;-73
2021/09/23 01:32:25;;;;;;;3.58;1.65;;;19.60;96.70;;;;;;5112243;27;20043;-73
2021/09/23 01:34:53;;;;;;;2.40;1.67;;;19.60;96.70;;;;;;5116163;27;20432;-73
2021/09/23 01:37:23;;;;;;;2.83;1.48;;;19.70;96.70;;;;;;5109121;27;20032;-73
2021/09/23 01:39:54;;;;;;;2.05;1.55;;;19.70;96.70;;;;;;5119181;27;20043;-72
2021/09/23 01:42:26;;;;;;;3.13;1.45;;;19.60;96.70;;;;;;5114453;27;20039;-72
2021/09/23 01:44:55;;;;;;;3.25;1.40;;;19.70;96.70;;;;;;5123844;27;20469;-73
2021/09/23 01:47:25;;;;;;;2.38;1.30;;;19.60;96.70;;;;;;5115873;27;20046;-73
2021/09/23 01:49:57;;;;;;;2.70;1.42;;;19.70;96.70;;;;;;5111136;27;20095;-73
2021/09/23 01:52:29;;;;;;;1.75;1.45;;;19.60;96.70;;;;;;5117406;27;20040;-73
2021/09/23 01:55:13;;;;;;;2.63;1.10;;;19.50;96.70;;;;;;5110942;27;20039;-73
2021/09/23 01:57:43;;;;;;;2.53;1.33;;;19.40;96.70;;;;;;5111852;27;20584;-72
2021/09/23 02:00:12;;;;;;;2.83;1.27;;;19.40;96.70;;;;;;5119456;27;20126;-73
2021/09/23 02:02:40;;;;;;;1.40;1.10;;;19.40;96.70;;;;;;5117944;27;20171;-73
2021/09/23 02:05:41;;;;;;;3.65;1.33;;;19.40;96.70;;;;;;5072919;27;20539;-73
2021/09/23 02:08:11;;;;;;;1.35;1.10;;;19.40;96.70;;;;;;5122080;27;20039;-72
2021/09/23 02:10:40;;;;;;;2.42;1.40;;;19.30;96.70;;;;;;5113758;27;20031;-73
2021/09/23 02:13:08;;;;;;;1.38;1.20;;;19.30;96.70;;;;;;5118663;27;20040;-73
2021/09/23 02:15:37;;;;;;;3.00;1.05;;;19.30;96.70;;;;;;5100972;27;20066;-73
2021/09/23 02:18:07;;;;;;;2.00;1.27;;;19.30;96.70;;;;;;5120690;27;20043;-73
2021/09/23 02:20:37;;;;;;;1.20;0.90;;;19.30;96.70;;;;;;5114619;27;20049;-73
2021/09/23 02:23:06;;;;;;;1.90;1.20;;;19.30;96.70;;;;;;5120449;27;20057;-73
2021/09/23 02:25:40;;;;;;;1.90;0.90;;;19.20;96.70;;;;;;5110392;27;20406;-72
2021/09/23 02:28:09;;;;;;;1.85;1.10;;;19.30;96.70;;;;;;5106906;27;20070;-73
2021/09/23 02:30:37;;;;;;;1.25;0.88;;;19.10;96.70;;;;;;5113249;27;20039;-72
2021/09/23 02:33:05;;;;;;;1.50;1.25;;;19.00;96.70;;;;;;5114705;27;20401;-73
2021/09/23 02:35:33;;;;;;;4.00;1.08;;;19.00;96.70;;;;;;5104540;27;20043;-73
2021/09/23 02:38:02;;;;;;;2.17;1.25;;;19.10;96.70;;;;;;5122493;27;20043;-73
2021/09/23 02:40:30;;;;;;;1.45;0.98;;;19.20;96.70;;;;;;5117554;27;20058;-73
2021/09/23 02:43:01;;;;;;;1.67;1.00;;;19.00;96.70;;;;;;5114665;27;20032;-73
2021/09/23 02:45:29;;;;;;;1.17;0.98;;;19.00;96.70;;;;;;5111610;27;20047;-73
2021/09/23 02:47:57;;;;;;;1.95;1.10;;;19.10;96.70;;;;;;5124392;27;20050;-73
2021/09/23 02:50:26;;;;;;;2.35;0.95;;;19.10;96.70;;;;;;5121592;27;20047;-73
2021/09/23 02:52:54;;;;;;;1.63;1.20;;;19.10;96.70;;;;;;5117494;27;20039;-73
2021/09/23 02:55:22;;;;;;;1.98;1.10;;;19.10;96.70;;;;;;5117057;27;20070;-72
2021/09/23 02:57:52;;;;;;;1.38;0.73;;;19.10;96.70;;;;;;5101186;27;20048;-73
2021/09/23 03:00:22;;;;;;;2.05;1.13;;;19.20;96.70;;;;;;5103634;27;20124;-72
2021/09/23 03:02:50;;;;;;;1.05;0.90;;;19.20;96.70;;;;;;5111229;27;20075;-72
2021/09/23 03:05:18;;;;;;;1.73;1.20;;;19.20;96.70;;;;;;5113719;27;20122;-73
2021/09/23 03:07:47;;;;;;;3.50;1.17;;;19.10;96.70;;;;;;5112822;27;20051;-73
2021/09/23 03:10:15;;;;;;;1.15;0.88;;;19.20;96.70;;;;;;5116309;27;20086;-72
2021/09/23 03:12:43;;;;;;;1.10;1.00;;;19.20;96.70;;;;;;5118248;27;20047;-72
2021/09/23 03:15:11;;;;;;;1.48;1.20;;;19.10;96.70;;;;;;5102837;28;20039;-72
2021/09/23 03:17:41;;;;;;;1.25;1.00;;;19.00;96.70;;;;;;5113813;27;20096;-72
2021/09/23 03:20:12;;;;;;;1.20;0.75;;;18.90;96.70;;;;;;5109673;27;20115;-72
2021/09/23 03:22:41;;;;;;;2.03;1.10;;;18.70;96.70;;;;;;5108375;27;20075;-73
2021/09/23 03:25:10;;;;;;;2.15;1.15;;;18.70;96.70;;;;;;5120234;27;20172;-73
2021/09/23 03:27:39;;;;;;;1.85;1.20;;;18.70;96.70;;;;;;5108640;27;20051;-72
2021/09/23 03:30:08;;;;;;;1.30;1.20;;;18.70;96.70;;;;;;5115488;27;20080;-72
2021/09/23 03:32:36;;;;;;;1.05;0.77;;;18.70;96.70;;;;;;5109412;27;20028;-72
2021/09/23 03:35:06;;;;;;;1.90;1.42;;;18.70;96.70;;;;;;5122502;28;20059;-73
2021/09/23 03:37:34;;;;;;;1.33;1.00;;;18.60;96.70;;;;;;5115238;27;20122;-72
2021/09/23 03:40:05;;;;;;;2.72;1.30;;;18.70;96.70;;;;;;5128666;27;20496;-72
2021/09/23 03:42:34;;;;;;;3.47;1.23;;;18.70;96.70;;;;;;5115878;27;20340;-72
2021/09/23 03:45:02;;;;;;;1.83;1.20;;;18.70;96.70;;;;;;5114298;27;20079;-71
2021/09/23 03:47:30;;;;;;;1.20;1.10;;;18.70;96.70;;;;;;5114450;27;20039;-72
2021/09/23 03:49:59;;;;;;;2.85;1.30;;;18.60;96.70;;;;;;5120095;27;20043;-72
2021/09/23 03:52:29;;;;;;;3.13;1.02;;;18.60;96.70;;;;;;5119779;27;20467;-72
2021/09/23 03:54:58;;;;;;;2.15;0.93;;;18.60;96.70;;;;;;5121656;27;20049;-72
2021/09/23 03:57:27;;;;;;;3.33;1.75;;;18.70;96.70;;;;;;5121851;27;20488;-73
2021/09/23 03:59:55;;;;;;;1.10;1.00;;;18.60;96.70;;;;;;5119848;27;20404;-72
2021/09/23 04:02:23;;;;;;;1.20;1.10;;;18.50;96.70;;;;;;5114038;27;20051;-72
2021/09/23 04:04:53;;;;;;;4.82;1.30;;;18.30;96.70;;;;;;5111914;27;20068;-72
2021/09/23 04:07:21;;;;;;;2.75;1.17;;;18.50;96.70;;;;;;5120023;27;20237;-73
2021/09/23 04:09:51;;;;;;;2.22;1.27;;;18.50;96.70;;;;;;5115548;27;20051;-72
2021/09/23 04:12:20;;;;;;;2.38;1.10;;;18.50;96.70;;;;;;5106741;27;20294;-73
2021/09/23 04:14:48;;;;;;;1.75;1.25;;;18.60;96.70;;;;;;5112936;27;20063;-73
2021/09/23 04:17:19;;;;;;;1.75;0.88;;;18.50;96.70;;;;;;5120579;27;20050;-73
2021/09/23 04:19:48;;;;;;;1.52;0.98;;;18.50;96.70;;;;;;5121265;27;20035;-73
2021/09/23 04:22:16;;;;;;;1.58;0.90;;;18.50;96.70;;;;;;5120426;27;20478;-73
2021/09/23 04:24:45;;;;;;;2.80;1.15;;;18.40;96.70;;;;;;5119379;27;20051;-73
2021/09/23 04:27:15;;;;;;;4.68;1.20;;;18.40;96.70;;;;;;5120471;27;20066;-73
2021/09/23 04:29:46;;;;;;;1.63;0.90;;;18.30;96.70;;;;;;5110989;27;20045;-73
2021/09/23 04:32:15;;;;;;;2.33;1.40;;;18.00;96.70;;;;;;5113712;27;20034;-72
2021/09/23 04:34:44;;;;;;;3.25;1.40;;;18.00;96.70;;;;;;5118597;27;20953;-73
2021/09/23 04:37:14;;;;;;;1.42;1.15;;;18.10;96.70;;;;;;5118251;27;20046;-73
2021/09/23 04:39:44;;;;;;;2.92;1.08;;;18.20;96.70;;;;;;5106310;27;20095;-73
2021/09/23 04:42:17;;;;;;;2.33;1.20;;;18.20;96.70;;;;;;5125931;27;20044;-73
2021/09/23 04:44:48;;;;;;;1.88;1.00;;;18.10;96.70;;;;;;5099553;27;20500;-73
2021/09/23 04:47:16;;;;;;;1.67;1.02;;;18.10;96.70;;;;;;5118642;27;20061;-73
2021/09/23 04:49:44;;;;;;;3.38;1.30;;;18.10;96.70;;;;;;5116226;27;20040;-73
2021/09/23 04:52:13;;;;;;;1.75;1.00;;;17.90;96.70;;;;;;5122039;27;20047;-73
2021/09/23 04:54:42;;;;;;;1.80;1.00;;;18.00;96.70;;;;;;5114167;27;20593;-73
2021/09/23 04:57:10;;;;;;;1.40;1.10;;;18.10;96.70;;;;;;5110909;27;20063;-73
2021/09/23 04:59:47;;;;;;;3.42;1.17;;;18.20;96.70;;;;;;5113871;27;20076;-73
2021/09/23 05:02:16;;;;;;;1.45;0.93;;;18.20;96.70;;;;;;5116959;27;20036;-72
2021/09/23 05:04:47;;;;;;;1.20;0.85;;;18.30;96.70;;;;;;5105480;27;20051;-72
2021/09/23 05:07:15;;;;;;;3.10;1.08;;;18.30;96.70;;;;;;5122429;27;20043;-72
2021/09/23 05:09:44;;;;;;;1.48;0.93;;;18.30;96.70;;;;;;5121044;27;20496;-72
2021/09/23 05:12:12;;;;;;;3.50;1.67;;;18.20;96.70;;;;;;5110700;27;20044;-72
2021/09/23 05:14:40;;;;;;;10.75;5.57;;;18.30;96.70;;;;;;5120266;27;20525;-72
2021/09/23 05:17:09;;;;;;;28.92;14.07;;;18.30;96.70;;;;;;5116233;27;20047;-72
2021/09/23 05:19:37;;;;;;;27.92;16.38;;;18.30;96.70;;;;;;5112231;27;20043;-72
2021/09/23 05:22:05;;;;;;;31.73;16.95;;;18.30;96.70;;;;;;5109217;27;20300;-72
2021/09/23 05:24:34;;;;;;;28.67;15.90;;;18.20;96.70;;;;;;5115499;27;20040;-72
2021/09/23 05:27:02;;;;;;;21.67;12.68;;;18.10;96.70;;;;;;5119279;27;20063;-72
2021/09/23 05:29:30;;;;;;;19.70;10.98;;;18.00;96.70;;;;;;5116991;27;20051;-72
2021/09/23 05:31:58;;;;;;;16.42;9.27;;;18.10;96.70;;;;;;5116136;27;20043;-72
2021/09/23 05:34:28;;;;;;;15.75;8.75;;;18.10;96.70;;;;;;5117060;27;20043;-74
2021/09/23 05:36:56;;;;;;;21.80;9.88;;;18.00;96.70;;;;;;5106105;27;20047;-73
2021/09/23 05:39:24;;;;;;;16.45;8.75;;;18.10;96.70;;;;;;5105236;27;20071;-73
2021/09/23 05:41:52;;;;;;;19.33;9.48;;;18.10;96.70;;;;;;5113416;27;20496;-73
2021/09/23 05:44:24;;;;;;;14.48;8.07;;;18.10;96.70;;;;;;5117354;27;20498;-73
2021/09/23 05:46:55;;;;;;;13.85;7.78;;;18.00;96.70;;;;;;5120130;27;20043;-73
2021/09/23 05:49:23;;;;;;;14.48;7.45;;;18.10;96.70;;;;;;5119834;27;20039;-74
2021/09/23 05:51:55;;;;;;;13.60;6.53;;;18.10;96.70;;;;;;5117501;27;20409;-73
2021/09/23 05:54:25;;;;;;;11.93;6.15;;;18.10;96.70;;;;;;5123080;27;20031;-73
2021/09/23 05:56:53;;;;;;;10.20;5.40;;;18.10;96.70;;;;;;5112070;27;20046;-73
2021/09/23 05:59:24;;;;;;;11.45;6.07;;;18.10;96.70;;;;;;5117104;27;20665;-76
2021/09/23 06:01:54;;;;;;;9.20;5.93;;;18.20;96.70;;;;;;5121574;27;20122;-75
2021/09/23 06:04:23;;;;;;;11.55;5.85;;;18.10;96.70;;;;;;5108939;27;20428;-75
2021/09/23 06:06:54;;;;;;;12.07;6.40;;;18.20;96.70;;;;;;5115947;27;20047;-74
2021/09/23 06:09:23;;;;;;;10.52;6.22;;;18.20;96.70;;;;;;5120620;27;20520;-72
2021/09/23 06:11:51;;;;;;;9.70;5.70;;;18.30;96.70;;;;;;5126950;27;20039;-73
2021/09/23 06:14:19;;;;;;;9.32;4.90;;;18.20;96.70;;;;;;5124456;27;20044;-73
2021/09/23 06:16:47;;;;;;;7.38;4.70;;;18.10;96.70;;;;;;5121441;27;20040;-72
2021/09/23 06:19:15;;;;;;;7.32;3.53;;;18.30;96.70;;;;;;5121904;27;20032;-72
2021/09/23 06:21:44;;;;;;;7.22;3.50;;;18.40;96.70;;;;;;5121317;27;20357;-71
2021/09/23 06:24:13;;;;;;;4.85;3.30;;;18.50;96.70;;;;;;5108581;27;20039;-72
2021/09/23 06:26:42;;;;;;;6.80;4.35;;;18.60;96.70;;;;;;5101607;27;20130;-72
2021/09/23 06:29:10;;;;;;;7.97;4.35;;;18.60;96.70;;;;;;5112476;27;20100;-72
2021/09/23 06:31:38;;;;;;;5.88;3.70;;;18.60;96.70;;;;;;5100878;27;20046;-73
2021/09/23 06:34:07;;;;;;;9.82;4.57;;;18.70;96.70;;;;;;5098533;27;20059;-73
2021/09/23 06:36:36;;;;;;;7.28;3.83;;;18.80;96.70;;;;;;5118546;27;20054;-73
2021/09/23 06:39:05;;;;;;;12.05;3.95;;;18.80;96.70;;;;;;5118643;27;20036;-72
2021/09/23 06:41:34;;;;;;;6.85;4.28;;;18.90;96.70;;;;;;5112927;27;20141;-73
2021/09/23 06:44:05;;;;;;;6.07;3.70;;;19.00;96.70;;;;;;5106480;27;20125;-73
2021/09/23 06:46:34;;;;;;;7.03;3.70;;;19.00;96.70;;;;;;5116734;27;20050;-74
2021/09/23 06:49:02;;;;;;;11.48;4.05;;;19.10;96.70;;;;;;5121452;27;20039;-74
2021/09/23 06:51:31;;;;;;;7.35;3.80;;;19.20;96.70;;;;;;5116020;27;20046;-73
2021/09/23 06:54:10;;;;;;;7.05;4.60;;;19.30;96.70;;;;;;5104350;27;20035;-74
2021/09/23 06:56:40;;;;;;;12.90;5.00;;;19.30;96.70;;;;;;5117948;27;20038;-73
2021/09/23 06:59:08;;;;;;;8.23;5.57;;;19.30;96.70;;;;;;5109736;27;20060;-73
2021/09/23 07:01:37;;;;;;;7.65;5.45;;;19.20;96.70;;;;;;5110919;27;20047;-73
2021/09/23 07:04:12;;;;;;;13.45;8.23;;;19.30;96.70;;;;;;5127355;27;20042;-73
2021/09/23 07:06:59;;;;;;;11.23;8.25;;;19.40;96.70;;;;;;5119320;27;20062;-73
2021/09/23 07:09:35;;;;;;;10.95;7.07;;;19.50;96.70;;;;;;5110830;27;20151;-73
2021/09/23 07:12:13;;;;;;;7.88;5.88;;;19.50;96.70;;;;;;5113562;27;20039;-73
2021/09/23 07:14:47;;;;;;;7.93;4.90;;;19.50;96.70;;;;;;5118087;27;20067;-73
2021/09/23 07:17:17;;;;;;;8.02;4.28;;;19.60;96.70;;;;;;5110626;27;20058;-74
2021/09/23 07:19:45;;;;;;;9.15;4.57;;;19.70;96.70;;;;;;5118297;27;20526;-73
2021/09/23 07:22:14;;;;;;;4.70;3.80;;;19.70;96.70;;;;;;5112253;28;20044;-73
2021/09/23 07:24:43;;;;;;;5.43;3.08;;;19.70;96.70;;;;;;5105610;28;20043;-72
2021/09/23 07:27:14;;;;;;;4.93;3.15;;;19.80;96.70;;;;;;5109871;27;20066;-73
2021/09/23 07:29:43;;;;;;;7.47;3.40;;;19.90;96.70;;;;;;5116090;27;20044;-73
2021/09/23 07:32:11;;;;;;;4.35;3.08;;;19.90;96.70;;;;;;5128655;27;20130;-73
2021/09/23 07:34:39;;;;;;;5.20;2.65;;;20.00;96.70;;;;;;5109693;27;20435;-73
2021/09/23 07:37:08;;;;;;;4.45;2.65;;;20.10;96.70;;;;;;5118023;27;20046;-74
2021/09/23 07:39:37;;;;;;;4.50;2.35;;;20.10;96.70;;;;;;5124478;27;20046;-73
2021/09/23 07:42:08;;;;;;;4.18;2.03;;;20.10;96.70;;;;;;5119607;27;20123;-73
2021/09/23 07:44:40;;;;;;;4.65;2.63;;;20.20;96.70;;;;;;5116316;27;20046;-74
2021/09/23 07:47:08;;;;;;;4.40;2.50;;;20.30;96.70;;;;;;5116833;27;20101;-74
2021/09/23 07:49:36;;;;;;;5.53;2.38;;;20.40;96.70;;;;;;5121313;27;20063;-73
2021/09/23 07:52:08;;;;;;;2.50;1.80;;;20.50;96.70;;;;;;5115337;27;20553;-73
2021/09/23 07:54:37;;;;;;;3.15;2.17;;;20.60;96.70;;;;;;5120238;27;20058;-73
2021/09/23 07:57:05;;;;;;;3.42;2.33;;;20.60;96.70;;;;;;5115337;27;20565;-73
2021/09/23 07:59:33;;;;;;;5.40;1.92;;;20.70;96.70;;;;;;5117357;27;20491;-73
2021/09/23 08:02:03;;;;;;;3.28;1.90;;;20.70;96.70;;;;;;5118894;27;20498;-74
2021/09/23 08:04:32;;;;;;;4.28;2.47;;;20.80;96.70;;;;;;5108381;27;20071;-75
2021/09/23 08:07:01;;;;;;;4.03;2.47;;;20.90;96.70;;;;;;5104197;27;20050;-74
2021/09/23 08:09:29;;;;;;;4.38;2.70;;;21.00;96.70;;;;;;5115064;27;20475;-74
2021/09/23 08:11:57;;;;;;;3.42;2.28;;;21.10;96.70;;;;;;5121869;27;20126;-74
2021/09/23 08:14:26;;;;;;;3.15;2.15;;;21.20;96.70;;;;;;5116862;27;20415;-74
2021/09/23 08:17:17;;;;;;;2.45;2.10;;;21.30;96.70;;;;;;5110650;27;20133;-74
2021/09/23 08:20:21;;;;;;;3.70;1.95;;;21.30;96.70;;;;;;5070704;28;20598;-74
2021/09/23 08:22:51;;;;;;;2.63;1.65;;;21.40;96.70;;;;;;5064495;28;20044;-74
2021/09/23 08:25:19;;;;;;;3.22;1.98;;;21.40;96.70;;;;;;5039253;28;20044;-73
2021/09/23 08:27:48;;;;;;;2.17;1.50;;;21.50;96.70;;;;;;5065823;28;20556;-75
2021/09/23 08:30:17;;;;;;;1.98;1.75;;;21.70;96.70;;;;;;5043682;28;20045;-74
2021/09/23 08:32:46;;;;;;;4.40;1.42;;;21.70;96.70;;;;;;5042816;28;20048;-73
2021/09/23 08:35:15;;;;;;;2.85;1.52;;;21.90;96.70;;;;;;5030898;28;20094;-73
2021/09/23 08:37:45;;;;;;;1.67;1.42;;;22.00;96.70;;;;;;5063547;28;21014;-74
2021/09/23 08:40:18;;;;;;;2.90;1.50;;;22.10;96.60;;;;;;5048089;28;20113;-73
2021/09/23 08:42:46;;;;;;;2.42;1.48;;;22.10;96.70;;;;;;5046466;28;20151;-73
2021/09/23 08:45:17;;;;;;;3.50;1.73;;;22.20;96.50;;;;;;5047217;28;20130;-74
2021/09/23 08:47:47;;;;;;;2.88;1.70;;;22.30;96.70;;;;;;5067179;28;20136;-74
2021/09/23 08:50:17;;;;;;;2.17;1.30;;;22.30;95.70;;;;;;5058125;28;20145;-73
2021/09/23 08:52:48;;;;;;;2.40;1.40;;;22.40;95.70;;;;;;5058035;28;20052;-73
2021/09/23 08:55:23;;;;;;;2.88;1.80;;;22.50;95.60;;;;;;5106363;27;20040;-73
2021/09/23 08:57:54;;;;;;;2.25;1.40;;;22.50;95.40;;;;;;5110305;27;20035;-73
2021/09/23 09:00:22;;;;;;;3.22;1.70;;;22.60;95.40;;;;;;5120939;27;20075;-73
2021/09/23 09:03:03;;;;;;;2.63;1.63;;;22.60;94.70;;;;;;5115681;27;20472;-73
2021/09/23 09:05:52;;;;;;;1.95;1.60;;;22.60;95.90;;;;;;5119134;27;20606;-73
2021/09/23 09:08:51;;;;;;;2.30;1.70;;;22.80;95.60;;;;;;5104972;27;20092;-73
2021/09/23 09:11:22;;;;;;;2.63;1.70;;;22.80;94.50;;;;;;5117693;27;20101;-73
2021/09/23 09:13:55;;;;;;;3.42;2.40;;;22.80;94.70;;;;;;5109858;27;20044;-73
2021/09/23 09:16:25;;;;;;;3.30;1.83;;;22.90;94.50;;;;;;5119590;27;20043;-73
2021/09/23 09:18:55;;;;;;;3.33;1.98;;;23.00;94.50;;;;;;5121165;27;20058;-73
2021/09/23 09:21:26;;;;;;;2.45;1.50;;;23.00;94.40;;;;;;5100216;27;20067;-73
2021/09/23 09:23:57;;;;;;;2.55;1.70;;;23.10;93.90;;;;;;5104428;27;20055;-73
2021/09/23 09:26:37;;;;;;;2.28;1.63;;;23.20;94.00;;;;;;5116659;27;20126;-73
2021/09/23 09:29:14;;;;;;;3.70;1.73;;;23.20;93.90;;;;;;5119160;27;20095;-73
2021/09/23 09:31:48;;;;;;;4.75;1.35;;;23.20;93.70;;;;;;5116667;27;20308;-73
2021/09/23 09:34:20;;;;;;;1.90;1.45;;;23.20;93.90;;;;;;5120489;27;20130;-73
2021/09/23 09:36:53;;;;;;;2.35;1.58;;;23.30;93.70;;;;;;5107894;27;20023;-73
2021/09/23 09:39:23;;;;;;;3.38;1.63;;;23.30;93.60;;;;;;5117605;27;20047;-74
2021/09/23 09:41:53;;;;;;;1.85;1.23;;;23.40;93.30;;;;;;5107499;27;20067;-73
2021/09/23 09:44:21;;;;;;;2.45;1.70;;;23.50;93.00;;;;;;5121324;27;20031;-73
2021/09/23 09:46:53;;;;;;;2.83;1.63;;;23.60;93.00;;;;;;5116436;27;20062;-73
2021/09/23 09:49:25;;;;;;;2.30;1.60;;;23.70;92.60;;;;;;5118164;27;20058;-73
2021/09/23 09:51:59;;;;;;;2.72;1.50;;;23.50;92.80;;;;;;5123466;27;20035;-73
2021/09/23 09:54:34;;;;;;;2.67;1.73;;;23.40;92.70;;;;;;5115158;27;20298;-73
2021/09/23 09:57:06;;;;;;;5.10;1.77;;;23.40;93.00;;;;;;5117259;27;20037;-73
2021/09/23 09:59:40;;;;;;;1.50;1.40;;;23.40;92.60;;;;;;5116028;27;20575;-73
2021/09/23 10:02:11;;;;;;;1.60;1.40;;;23.40;92.60;;;;;;5118790;27;20043;-73
2021/09/23 10:04:46;;;;;;;2.72;1.40;;;23.50;92.60;;;;;;5115248;27;20035;-73
2021/09/23 10:07:15;;;;;;;1.50;1.30;;;23.70;92.60;;;;;;5114722;27;20035;-74
2021/09/23 10:09:46;;;;;;;2.15;1.42;;;23.60;92.40;;;;;;5118202;27;20040;-73
2021/09/23 10:12:18;;;;;;;2.95;1.42;;;23.70;92.60;;;;;;5116254;27;20043;-73
2021/09/23 10:14:49;;;;;;;2.40;1.40;;;24.00;91.90;;;;;;5115485;27;20047;-73
2021/09/23 10:17:19;;;;;;;3.45;1.55;;;24.10;91.60;;;;;;5107605;27;20100;-73
2021/09/23 10:19:49;;;;;;;3.00;1.50;;;24.20;91.20;;;;;;5110944;27;20497;-74
2021/09/23 10:22:17;;;;;;;1.83;1.60;;;24.20;90.80;;;;;;5113194;27;20396;-74
2021/09/23 10:24:47;;;;;;;3.28;1.73;;;24.30;91.20;;;;;;5095261;28;20861;-73
2021/09/23 10:30:04;;;;;;;1.98;1.75;;;24.60;90.10;;;;;;5116135;27;20501;-75
2021/09/23 10:32:34;;;;;;;5.60;1.90;;;24.80;89.90;;;;;;5120258;27;20051;-73
2021/09/23 10:35:05;;;;;;;2.67;1.73;;;24.70;88.90;;;;;;5120447;27;20054;-73
2021/09/23 10:37:34;;;;;;;2.35;1.63;;;24.70;89.20;;;;;;5110706;27;20040;-72
2021/09/23 10:40:05;;;;;;;2.17;1.83;;;24.70;89.60;;;;;;5102035;27;20448;-72
2021/09/23 10:42:34;;;;;;;2.00;1.80;;;24.80;89.00;;;;;;5114792;27;20048;-72
2021/09/23 10:45:05;;;;;;;3.17;1.77;;;24.80;89.20;;;;;;5119847;27;20035;-73
2021/09/23 10:47:35;;;;;;;3.25;2.38;;;25.00;89.40;;;;;;5122651;27;20051;-72
2021/09/23 10:50:07;;;;;;;3.33;2.00;;;25.00;88.90;;;;;;5123344;27;20039;-72
2021/09/23 10:52:36;;;;;;;1.85;1.60;;;25.10;89.40;;;;;;5128689;27;20046;-72
2021/09/23 10:55:07;;;;;;;3.22;1.80;;;25.30;88.50;;;;;;5108565;27;20047;-72
2021/09/23 10:57:36;;;;;;;5.13;2.05;;;25.30;88.70;;;;;;5121801;27;20083;-72
2021/09/23 11:00:07;;;;;;;2.55;1.83;;;25.30;88.60;;;;;;5113395;27;20510;-72
2021/09/23 11:02:36;;;;;;;2.72;1.70;;;25.40;87.40;;;;;;5119407;27;20059;-73
2021/09/23 11:05:12;;;;;;;2.45;2.20;;;25.40;86.60;;;;;;5101817;28;20149;-72
2021/09/23 11:07:43;;;;;;;2.35;1.90;;;25.40;87.00;;;;;;5112467;28;20047;-74
2021/09/23 11:10:13;;;;;;;2.13;1.83;;;25.50;87.50;;;;;;5118553;27;20047;-73
2021/09/23 11:12:45;;;;;;;2.38;2.00;;;25.60;87.60;;;;;;5110677;27;20043;-73
2021/09/23 11:15:15;;;;;;;2.92;1.90;;;25.50;87.40;;;;;;5122715;27;20118;-73
2021/09/23 11:17:45;;;;;;;3.08;1.95;;;25.60;87.20;;;;;;5110644;27;20039;-73
2021/09/23 11:20:20;;;;;;;3.30;2.05;;;25.70;86.40;;;;;;5114354;27;20043;-73
2021/09/23 11:22:52;;;;;;;2.38;1.70;;;25.90;86.20;;;;;;5109546;27;20035;-73
2021/09/23 11:25:22;;;;;;;3.95;1.70;;;26.00;85.60;;;;;;5130340;27;20647;-73
2021/09/23 11:27:52;;;;;;;3.40;1.67;;;26.10;85.40;;;;;;5123139;27;20150;-73
2021/09/23 11:30:23;;;;;;;2.55;1.80;;;26.00;85.10;;;;;;5113517;27;20134;-73
2021/09/23 11:32:52;;;;;;;2.83;1.63;;;26.00;85.10;;;;;;5112129;27;20488;-74
2021/09/23 11:35:25;;;;;;;2.08;1.63;;;26.00;84.80;;;;;;5118159;27;20442;-74
2021/09/23 11:37:54;;;;;;;3.50;1.60;;;26.20;83.80;;;;;;5103904;27;20035;-76
2021/09/23 11:40:25;;;;;;;2.08;1.33;;;26.40;83.80;;;;;;5117737;27;20505;-74
2021/09/23 11:42:54;;;;;;;2.28;1.40;;;26.50;84.50;;;;;;5118999;27;20043;-74
2021/09/23 11:45:24;;;;;;;2.15;1.30;;;26.60;83.70;;;;;;5122662;27;20051;-75
2021/09/23 11:47:55;;;;;;;2.17;1.35;;;26.70;83.10;;;;;;5124167;27;20047;-74
2021/09/23 11:50:29;;;;;;;2.75;1.30;;;26.90;82.90;;;;;;5118714;27;20045;-75
2021/09/23 11:53:01;;;;;;;2.65;1.38;;;27.10;81.50;;;;;;5123034;27;20070;-76
2021/09/23 11:55:29;;;;;;;2.83;1.60;;;27.10;81.70;;;;;;5122936;27;20075;-76
2021/09/23 11:58:03;;;;;;;1.35;1.20;;;27.10;80.70;;;;;;5120410;27;20055;-75
2021/09/23 12:00:39;;;;;;;2.70;1.60;;;27.10;80.60;;;;;;5112966;27;20044;-75
2021/09/23 12:03:08;;;;;;;1.33;1.17;;;27.10;80.60;;;;;;5114912;27;20120;-76
2021/09/23 12:05:40;;;;;;;2.80;1.77;;;26.90;80.40;;;;;;5112680;27;20048;-73
2021/09/23 12:08:13;;;;;;;2.00;1.60;;;26.90;80.90;;;;;;5111733;27;20315;-73
2021/09/23 12:10:45;;;;;;;1.73;1.48;;;26.90;80.90;;;;;;5120938;27;20042;-73
2021/09/23 12:13:51;;;;;;;2.33;1.40;;;27.10;80.20;;;;;;5120115;27;20050;-73
2021/09/23 12:16:17;;;;;;;2.42;1.45;;;27.10;79.90;;;;;;5114376;27;20504;-73
2021/09/23 12:18:48;;;;;;;3.20;1.38;;;27.30;80.70;;;;;;5101273;27;20047;-73
2021/09/23 12:21:20;;;;;;;2.55;1.50;;;27.30;80.50;;;;;;5129906;27;20039;-72
2021/09/23 12:23:52;;;;;;;3.22;1.58;;;27.20;79.60;;;;;;5106159;27;20059;-73
2021/09/23 12:26:25;;;;;;;;;;;27.20;80.60;;;;;;5120345;27;20038;-73
2021/09/23 12:29:01;;;;;;;1.55;1.45;;;27.20;80.50;;;;;;5125636;27;19923;-73
2021/09/23 12:31:37;;;;;;;2.13;1.70;;;27.30;80.80;;;;;;5100282;27;20581;-73
2021/09/23 12:34:13;;;;;;;1.83;1.33;;;27.40;80.50;;;;;;5111673;27;20040;-73
2021/09/23 12:36:46;;;;;;;1.73;1.45;;;27.50;80.40;;;;;;5102431;27;20594;-73
2021/09/23 12:39:18;;;;;;;1.40;1.30;;;27.70;80.60;;;;;;5122298;27;20361;-73
2021/09/23 12:42:06;;;;;;;2.17;1.30;;;27.90;79.70;;;;;;5126479;27;20421;-73
2021/09/23 12:44:37;;;;;;;2.13;1.50;;;27.70;77.20;;;;;;5089901;27;20167;-73
2021/09/23 12:47:11;;;;;;;1.92;1.35;;;27.60;78.20;;;;;;5107260;27;20054;-73
2021/09/23 12:49:41;;;;;;;1.98;1.23;;;27.60;78.50;;;;;;5099390;27;20053;-73
2021/09/23 12:52:18;;;;;;;1.60;1.35;;;27.70;77.20;;;;;;5123930;27;20410;-73
2021/09/23 12:54:51;;;;;;;;;;;27.90;77.30;;;;;;5112866;27;20051;-73
2021/09/23 12:57:44;;;;;;;1.55;1.30;;;28.00;78.70;;;;;;5126178;27;19923;-73
2021/09/23 13:00:14;;;;;;;2.47;1.20;;;28.00;78.30;;;;;;5119496;27;20172;-73
2021/09/23 13:03:06;;;;;;;2.63;1.60;;;27.90;77.80;;;;;;5107105;27;20388;-73
2021/09/23 13:05:38;;;;;;;3.28;1.30;;;27.80;78.50;;;;;;5115109;27;20134;-72
2021/09/23 13:08:19;;;;;;;1.80;1.38;;;27.90;78.50;;;;;;5121810;27;20459;-72